Little Orleans, MD

11:38 AM EST on December 10, 2019 (GMT -0500)
Four Quarters | | Change Station

Elev 768 ft 39.75 °N, 78.37 °W | Updated 7 seconds ago

Rain
Rain
46.8 °F
Feels Like 41 °F
N
11.86
Wind Variable Wind from NNE
Gusts 15.0 mph

Today
High -- | Low -- °F
--% Chance of Precip.
Yesterday
High -- | Low -- °F
Precip. -- in
Pressure 29.91 in
Visibility 10.0 miles
Clouds Scattered Clouds 3700 ft
Scattered Clouds 4800 ft
Mostly Cloudy 6000 ft
Windchill 41 °F
Dew Point 43 °F
Humidity 86%
Rainfall 0.07 in
Snow Depth Not available.
7:23 AM 4:49 PM
Waxing Gibbous, 97% visible
METAR KCBE 101610Z AUTO 25014G25KT 230V290 10SM SCT037 SCT048 BKN060 14/08 A2991 RMK AO2 T01350080
Pressure 29.91 in
Visibility 10.0 miles
Clouds Scattered Clouds 3700 ft
Scattered Clouds 4800 ft
Mostly Cloudy 6000 ft
Windchill 41 °F
Dew Point 43 °F
Humidity 86%
Rainfall 0.07 in
Snow Depth Not available.
7:23 AM 4:49 PM
Waxing Gibbous, 97% visible
METAR KCBE 101610Z AUTO 25014G25KT 230V290 10SM SCT037 SCT048 BKN060 14/08 A2991 RMK AO2 T01350080

Get Severe Weather Alerts

Thanks for signing up!

Be on the lookout for a verification email in your inbox.

You'll start receiving the daily forecast at 6 AM.

×

10-Day Weather Forecast

Almanac

Astronomy

Dec. 10, 2019 Rise Set
Actual Time
Civil Twilight
Nautical Twilight
Astronomical Twilight
Moon
Length of Visible Light
Length of Day
Tomorrow will be .
, % of the Moon is Illuminated

Today's Extremes

State Highs State Lows

Community

WunderPhotos

Category 6

Welcome to Category 6. This is the collective home for Weather Underground's featured writeups by Dr. Jeff Masters (right), Bob Henson (left), Chris Burt, and other regular contributors.

Nearby

Air Quality

  Air Quality AQ Index Pollutant
Not available.

Snow Depth

Station Depth Elevation

Earthquake Activity

City Distance Mag. Time & Date
Minimum magnitude displayed is 2.5.

Coastal Water Temperatures

Place Temperature

Stations

Nearby Weather Stations

Station Location Temp. Windchill Dew Point Humidity Wind Precip. Elev Updated Type
                   

Watches & Warnings

There are currently no watches in effect.